createdAt,value
2023-02-25T00:02:15.506Z,98668.16
2023-02-25T00:04:42.979Z,98668.47
2023-02-25T00:07:10.477Z,98679.81
2023-02-25T00:09:37.963Z,98688.66
2023-02-25T00:12:05.643Z,98671.75
2023-02-25T00:14:33.091Z,98672.75
2023-02-25T00:17:02.093Z,98665.03
2023-02-25T00:22:31.671Z,98669.94
2023-02-25T00:24:59.087Z,98672.25
2023-02-25T00:27:26.590Z,98677.19
2023-02-25T00:32:45.961Z,98674.72
2023-02-25T00:35:13.726Z,98673.75
2023-02-25T00:37:41.170Z,98676.69
2023-02-25T00:40:14.559Z,98675.06
2023-02-25T00:42:42.537Z,98681.28
2023-02-25T00:45:11.495Z,98680.16
2023-02-25T00:47:39.257Z,98682.63
2023-02-25T00:50:10.246Z,98680.66
2023-02-25T00:55:33.227Z,98680.50
2023-02-25T01:01:04.281Z,98685.09
2023-02-25T01:03:31.777Z,98681.63
2023-02-25T01:06:00.817Z,98694.13
2023-02-25T01:08:28.531Z,98691.03
2023-02-25T01:10:55.953Z,98688.53
2023-02-25T01:13:23.635Z,98684.09
2023-02-25T01:15:57.820Z,98667.66
2023-02-25T01:18:25.278Z,98681.47
2023-02-25T01:20:53.575Z,98688.72
2023-02-25T01:23:23.584Z,98675.41
2023-02-25T01:25:51.004Z,98689.69
2023-02-25T01:28:18.445Z,98690.66
2023-02-25T01:30:47.292Z,98701.00
2023-02-25T01:33:14.731Z,98699.69
2023-02-25T01:35:42.175Z,98704.31
2023-02-25T01:38:09.637Z,98697.22
2023-02-25T01:40:38.675Z,98703.97
2023-02-25T01:43:07.650Z,98693.63
2023-02-25T01:45:35.407Z,98694.75
2023-02-25T01:48:07.958Z,98693.78
2023-02-25T01:50:41.277Z,98690.16
2023-02-25T01:55:59.373Z,98693.47
2023-02-25T01:58:28.014Z,98690.34
2023-02-25T02:03:53.807Z,98705.78
2023-02-25T02:06:24.167Z,98716.44
2023-02-25T02:08:51.846Z,98717.97
2023-02-25T02:11:20.695Z,98719.75
2023-02-25T02:13:50.792Z,98720.41
2023-02-25T02:16:35.464Z,98719.25
2023-02-25T02:19:09.122Z,98727.47
2023-02-25T02:21:46.678Z,98722.72
2023-02-25T02:24:34.913Z,98721.06
2023-02-25T02:27:18.074Z,98721.25
2023-02-25T02:30:28.252Z,98723.72
2023-02-25T02:36:04.325Z,98715.84
2023-02-25T02:41:36.484Z,98716.50
2023-02-25T02:44:07.749Z,98705.00
2023-02-25T02:46:38.225Z,98700.72
2023-02-25T02:49:10.067Z,98713.34
2023-02-25T02:51:41.098Z,98716.44
2023-02-25T02:54:11.553Z,98716.75
2023-02-25T02:56:41.146Z,98716.63
2023-02-25T03:02:03.649Z,98740.25
2023-02-25T03:04:33.649Z,98733.06
2023-02-25T03:07:04.027Z,98729.13
2023-02-25T03:09:36.640Z,98731.88
2023-02-25T03:12:04.362Z,98737.19
2023-02-25T03:14:34.330Z,98736.19
2023-02-25T03:17:06.724Z,98736.19
2023-02-25T03:22:42.219Z,98729.78
2023-02-25T03:25:13.535Z,98747.38
2023-02-25T03:30:42.013Z,98754.28
2023-02-25T03:33:15.210Z,98759.38
2023-02-25T03:35:43.652Z,98758.53
2023-02-25T03:38:16.838Z,98742.78
2023-02-25T03:40:44.490Z,98748.03
2023-02-25T03:43:15.115Z,98754.22
2023-02-25T03:45:44.339Z,98756.88
2023-02-25T03:48:13.015Z,98758.84
2023-02-25T03:50:43.640Z,98770.50
2023-02-25T03:53:14.070Z,98763.81
2023-02-25T03:55:50.606Z,98761.28
2023-02-25T03:58:18.215Z,98773.47
2023-02-25T04:03:34.617Z,98785.78
2023-02-25T04:06:02.380Z,98791.16
2023-02-25T04:08:31.147Z,98783.47
2023-02-25T04:10:58.557Z,98795.13
2023-02-25T04:13:26.055Z,98782.50
2023-02-25T04:15:53.540Z,98788.41
2023-02-25T04:21:29.578Z,98794.47
2023-02-25T04:23:58.664Z,98792.66
2023-02-25T04:29:14.612Z,98794.31
2023-02-25T04:31:42.422Z,98791.03
2023-02-25T04:34:09.928Z,98794.31
2023-02-25T04:36:37.533Z,98802.19
2023-02-25T04:39:06.411Z,98799.91
2023-02-25T04:41:35.662Z,98799.91
2023-02-25T04:44:04.777Z,98802.16
2023-02-25T04:46:33.264Z,98801.31
2023-02-25T04:49:01.250Z,98809.44
2023-02-25T04:51:29.099Z,98807.44
2023-02-25T04:53:56.935Z,98809.53
2023-02-25T04:59:28.044Z,98807.25
2023-02-25T05:01:55.634Z,98805.44
2023-02-25T05:04:23.381Z,98809.13
2023-02-25T05:06:50.817Z,98791.81
2023-02-25T05:12:20.604Z,98804.09
2023-02-25T05:14:50.132Z,98812.66
2023-02-25T05:17:18.190Z,98800.50
2023-02-25T05:20:09.608Z,98804.63
2023-02-25T05:22:37.026Z,98807.25
2023-02-25T05:27:52.691Z,98804.81
2023-02-25T05:30:21.706Z,98808.94
2023-02-25T05:32:49.357Z,98801.03
2023-02-25T05:35:16.951Z,98803.16
2023-02-25T05:37:44.402Z,98807.97
2023-02-25T05:40:13.886Z,98820.25
2023-02-25T05:42:41.296Z,98816.63
2023-02-25T05:45:10.379Z,98818.88
2023-02-25T05:47:39.357Z,98830.09
2023-02-25T05:50:07.364Z,98833.19
2023-02-25T05:52:34.791Z,98833.38
2023-02-25T05:55:02.808Z,98835.16
2023-02-25T05:57:30.533Z,98838.31
2023-02-25T05:59:57.958Z,98834.03
2023-02-25T06:02:25.466Z,98840.13
2023-02-25T06:04:55.450Z,98840.78
2023-02-25T06:07:22.856Z,98846.31
2023-02-25T06:09:50.275Z,98851.91
2023-02-25T06:12:17.706Z,98850.56
2023-02-25T06:17:43.626Z,98852.75
2023-02-25T06:20:15.419Z,98854.53
2023-02-25T06:25:31.959Z,98856.25
2023-02-25T06:27:59.656Z,98859.09
2023-02-25T06:33:15.611Z,98873.31
2023-02-25T06:35:44.418Z,98881.34
2023-02-25T06:38:11.830Z,98882.06
2023-02-25T06:40:39.275Z,98889.00
2023-02-25T06:46:06.832Z,98890.72
2023-02-25T06:48:34.262Z,98900.91
2023-02-25T06:51:04.674Z,98899.53
2023-02-25T06:53:32.105Z,98904.13
2023-02-25T06:55:59.892Z,98912.75
2023-02-25T06:58:27.339Z,98910.91
2023-02-25T07:00:54.763Z,98910.91
2023-02-25T07:03:22.247Z,98916.16
2023-02-25T07:05:49.676Z,98917.88
2023-02-25T07:08:43.580Z,98919.03
2023-02-25T07:11:15.039Z,98927.09
2023-02-25T07:13:43.685Z,98927.38
2023-02-25T07:16:11.461Z,98941.06
2023-02-25T07:18:38.978Z,98940.56
2023-02-25T07:21:06.724Z,98942.75
2023-02-25T07:23:34.368Z,98941.13
2023-02-25T07:26:04.911Z,98947.09
2023-02-25T07:28:32.721Z,98958.47
2023-02-25T07:31:01.208Z,98965.78
2023-02-25T07:33:29.379Z,98969.97
2023-02-25T07:39:03.203Z,98959.94
2023-02-25T07:41:31.963Z,98964.53
2023-02-25T07:44:03.312Z,98979.97
2023-02-25T07:49:33.804Z,98967.97
2023-02-25T07:52:01.908Z,98981.44
2023-02-25T07:54:29.376Z,98985.34
2023-02-25T07:56:59.526Z,98979.44
2023-02-25T08:02:25.666Z,98982.94
2023-02-25T08:04:53.147Z,98978.03
2023-02-25T08:07:21.183Z,98983.19
2023-02-25T08:09:48.611Z,98975.72
2023-02-25T08:15:16.158Z,98986.03
2023-02-25T08:17:43.760Z,98984.25
2023-02-25T08:20:13.810Z,98985.06
2023-02-25T08:22:41.410Z,98992.69
2023-02-25T08:28:07.651Z,99000.44
2023-02-25T08:30:37.106Z,98990.91
2023-02-25T08:33:04.949Z,98992.84
2023-02-25T08:35:32.884Z,99000.25
2023-02-25T08:40:48.638Z,98992.72
2023-02-25T08:43:16.133Z,99006.78
2023-02-25T08:45:45.044Z,99011.72
2023-02-25T08:48:13.492Z,99003.66
2023-02-25T08:53:34.134Z,99001.34
2023-02-25T08:58:58.930Z,99004.00
2023-02-25T09:01:41.957Z,99005.97
2023-02-25T09:04:09.523Z,99007.78
2023-02-25T09:06:37.036Z,99001.34
2023-02-25T09:11:52.999Z,99029.25
2023-02-25T09:14:21.132Z,99028.09
2023-02-25T09:16:50.192Z,99043.06
2023-02-25T09:19:18.333Z,99036.19
2023-02-25T09:24:34.817Z,99035.44
2023-02-25T09:27:07.365Z,99040.69
2023-02-25T09:29:34.929Z,99040.03
2023-02-25T09:32:03.999Z,99032.34
2023-02-25T09:37:29.637Z,99037.47
2023-02-25T09:39:57.388Z,99030.09
2023-02-25T09:42:26.704Z,99032.16
2023-02-25T09:44:58.360Z,99034.56
2023-02-25T09:50:21.577Z,99040.59
2023-02-25T09:52:54.670Z,99044.34
2023-02-25T09:55:25.390Z,99062.63
2023-02-25T09:57:57.386Z,99065.06
2023-02-25T10:03:19.678Z,99084.53
2023-02-25T10:08:56.699Z,99095.56
2023-02-25T10:11:33.906Z,99106.16
2023-02-25T10:14:09.003Z,99123.38
2023-02-25T10:16:43.364Z,99133.84
2023-02-25T10:22:22.496Z,99147.47
2023-02-25T10:27:57.173Z,99156.38
2023-02-25T10:30:31.166Z,99166.38
2023-02-25T10:33:01.235Z,99161.94
2023-02-25T10:35:32.316Z,99167.84
2023-02-25T10:40:59.187Z,99168.19
2023-02-25T10:43:28.428Z,99176.97
2023-02-25T10:46:01.176Z,99177.88
2023-02-25T10:48:28.912Z,99179.72
2023-02-25T10:54:04.770Z,99168.63
2023-02-25T10:59:39.296Z,99170.44
2023-02-25T11:02:22.058Z,99158.78
2023-02-25T11:04:52.281Z,99151.75
2023-02-25T11:07:33.090Z,99147.97
2023-02-25T11:12:59.360Z,99176.16
2023-02-25T11:18:29.706Z,99168.00
2023-02-25T11:20:59.032Z,99161.00
2023-02-25T11:23:31.350Z,99164.25
2023-02-25T11:25:58.889Z,99159.31
2023-02-25T11:31:18.875Z,99188.16
2023-02-25T11:33:52.810Z,99181.00
2023-02-25T11:36:24.937Z,99173.31
2023-02-25T11:39:07.100Z,99176.25
2023-02-25T11:44:43.159Z,99187.59
2023-02-25T11:50:25.166Z,99205.22
2023-02-25T11:52:59.054Z,99191.94
2023-02-25T11:55:38.928Z,99206.88
2023-02-25T11:58:12.815Z,99208.09
2023-02-25T12:03:52.286Z,99194.19
2023-02-25T12:09:46.192Z,99209.38
2023-02-25T12:15:50.213Z,99224.75
2023-02-25T12:22:17.018Z,99224.09
2023-02-25T12:24:58.401Z,99237.13
2023-02-25T12:27:47.133Z,99229.34
2023-02-25T12:30:35.517Z,99235.94
2023-02-25T12:33:10.318Z,99238.75
2023-02-25T12:36:25.416Z,99240.56
2023-02-25T12:41:47.478Z,99254.16
2023-02-25T12:47:26.019Z,99257.97
2023-02-25T12:50:22.057Z,99251.75
2023-02-25T12:53:04.488Z,99257.91
2023-02-25T12:55:43.809Z,99261.22
2023-02-25T12:58:43.746Z,99263.84
2023-02-25T13:01:22.137Z,99264.59
2023-02-25T13:07:03.588Z,99265.66
2023-02-25T13:12:53.741Z,99274.31
2023-02-25T13:15:29.406Z,99288.25
2023-02-25T13:18:17.389Z,99292.41
2023-02-25T13:20:54.955Z,99285.06
2023-02-25T13:23:33.133Z,99292.97
2023-02-25T13:29:12.709Z,99298.66
2023-02-25T13:35:05.988Z,99307.78
2023-02-25T13:37:42.317Z,99297.88
2023-02-25T13:40:22.267Z,99309.91
2023-02-25T13:43:19.560Z,99320.09
2023-02-25T13:46:16.155Z,99316.63
2023-02-25T13:49:06.815Z,99321.47
2023-02-25T13:52:02.792Z,99324.03
2023-02-25T13:54:41.168Z,99330.94
2023-02-25T13:57:41.361Z,99327.47
2023-02-25T14:00:45.762Z,99335.09
2023-02-25T14:03:31.501Z,99342.47
2023-02-25T14:06:04.337Z,99336.94
2023-02-25T14:11:51.327Z,99323.91
2023-02-25T14:14:35.488Z,99341.28
2023-02-25T14:17:35.522Z,99344.25
2023-02-25T14:20:20.952Z,99352.72
2023-02-25T14:22:51.967Z,99355.75
2023-02-25T14:25:33.218Z,99366.53
2023-02-25T14:28:08.398Z,99368.06
2023-02-25T14:30:42.301Z,99371.34
2023-02-25T14:36:13.282Z,99380.06
2023-02-25T14:39:01.841Z,99378.97
2023-02-25T14:41:36.647Z,99388.50
2023-02-25T14:44:11.011Z,99394.31
2023-02-25T14:46:41.171Z,99402.28
2023-02-25T14:49:12.935Z,99402.78
2023-02-25T14:52:02.261Z,99406.13
2023-02-25T14:55:02.125Z,99412.63
2023-02-25T14:57:53.523Z,99417.75
2023-02-25T15:00:50.997Z,99415.59
2023-02-25T15:06:31.550Z,99423.53
2023-02-25T15:12:22.740Z,99433.25
2023-02-25T15:15:09.258Z,99457.22
2023-02-25T15:18:16.449Z,99450.63
2023-02-25T15:20:46.008Z,99455.63
2023-02-25T15:23:15.872Z,99450.31
2023-02-25T15:28:43.651Z,99448.84
2023-02-25T15:31:28.228Z,99448.53
2023-02-25T15:34:11.362Z,99454.50
2023-02-25T15:36:48.318Z,99459.78
2023-02-25T15:39:49.588Z,99472.66
2023-02-25T15:42:17.478Z,99469.88
2023-02-25T15:44:45.699Z,99469.16
2023-02-25T15:47:27.908Z,99473.63
2023-02-25T15:49:57.739Z,99474.78
2023-02-25T15:52:56.215Z,99490.19
2023-02-25T15:55:39.286Z,99493.75
2023-02-25T15:58:43.897Z,99495.44
2023-02-25T16:01:46.032Z,99508.09
2023-02-25T16:04:50.537Z,99514.56
2023-02-25T16:07:20.822Z,99522.50
2023-02-25T16:12:54.648Z,99517.66
2023-02-25T16:15:33.302Z,99520.59
2023-02-25T16:18:21.741Z,99531.63
2023-02-25T16:20:50.689Z,99530.72
2023-02-25T16:23:23.354Z,99533.75
2023-02-25T16:25:57.274Z,99543.41
2023-02-25T16:31:19.499Z,99547.97
2023-02-25T16:33:52.039Z,99548.13
2023-02-25T16:36:25.895Z,99555.59
2023-02-25T16:38:57.796Z,99566.38
2023-02-25T16:44:33.924Z,99563.72
2023-02-25T16:47:03.083Z,99574.94
2023-02-25T16:49:32.800Z,99584.34
2023-02-25T16:52:01.334Z,99579.78
2023-02-25T16:54:32.403Z,99584.75
2023-02-25T17:00:14.071Z,99596.19
2023-02-25T17:02:47.466Z,99599.84
2023-02-25T17:05:28.860Z,99598.59
2023-02-25T17:07:59.443Z,99600.09
2023-02-25T17:10:48.659Z,99599.78
2023-02-25T17:13:20.822Z,99601.72
2023-02-25T17:15:48.275Z,99602.88
2023-02-25T17:18:24.509Z,99622.53
2023-02-25T17:23:53.548Z,99619.31
2023-02-25T17:26:21.835Z,99630.78
2023-02-25T17:28:51.882Z,99640.09
2023-02-25T17:31:24.418Z,99633.94
2023-02-25T17:33:54.554Z,99633.25
2023-02-25T17:36:24.865Z,99636.13
2023-02-25T17:38:56.074Z,99640.16
2023-02-25T17:41:24.063Z,99634.78
2023-02-25T17:46:52.543Z,99657.75
2023-02-25T17:49:27.382Z,99652.63
2023-02-25T17:51:56.306Z,99653.47
2023-02-25T17:54:25.804Z,99652.81
2023-02-25T17:59:57.754Z,99654.78
2023-02-25T18:05:25.539Z,99651.72
2023-02-25T18:08:17.833Z,99646.59
2023-02-25T18:10:51.107Z,99650.75
2023-02-25T18:13:28.790Z,99638.63
2023-02-25T18:16:29.532Z,99658.69
2023-02-25T18:18:57.740Z,99661.56
2023-02-25T18:21:26.784Z,99675.72
2023-02-25T18:23:54.235Z,99681.78
2023-02-25T18:26:24.337Z,99675.72
2023-02-25T18:28:52.180Z,99677.63
2023-02-25T18:31:20.717Z,99681.94
2023-02-25T18:33:48.527Z,99682.84
2023-02-25T18:36:23.400Z,99680.97
2023-02-25T18:38:54.415Z,99685.59
2023-02-25T18:41:21.876Z,99693.69
2023-02-25T18:46:51.576Z,99697.63
2023-02-25T18:49:19.544Z,99702.50
2023-02-25T18:52:06.084Z,99697.75
2023-02-25T18:54:35.055Z,99699.63
2023-02-25T18:57:02.752Z,99706.63
2023-02-25T18:59:30.186Z,99697.84
2023-02-25T19:04:40.787Z,99707.34
2023-02-25T19:07:10.553Z,99715.06
2023-02-25T19:09:39.284Z,99711.50
2023-02-25T19:12:06.911Z,99704.84
2023-02-25T19:14:34.341Z,99715.34
2023-02-25T19:20:05.404Z,99718.41
2023-02-25T19:22:33.539Z,99720.81
2023-02-25T19:25:02.315Z,99728.06
2023-02-25T19:27:30.446Z,99730.31
2023-02-25T19:29:59.482Z,99723.09
2023-02-25T19:32:27.150Z,99728.53
2023-02-25T19:34:54.640Z,99726.38
2023-02-25T19:37:22.096Z,99729.25
2023-02-25T19:39:49.782Z,99726.88
2023-02-25T19:45:14.198Z,99734.31
2023-02-25T19:50:54.642Z,99746.84
2023-02-25T19:53:22.083Z,99760.78
2023-02-25T19:55:49.587Z,99766.38
2023-02-25T19:58:17.040Z,99771.72
2023-02-25T20:03:44.012Z,99776.00
2023-02-25T20:06:13.574Z,99778.41
2023-02-25T20:11:27.629Z,99788.75
2023-02-25T20:13:55.086Z,99784.44
2023-02-25T20:16:24.529Z,99791.59
2023-02-25T20:18:56.215Z,99796.00
2023-02-25T20:21:23.779Z,99792.78
2023-02-25T20:26:39.796Z,99803.00
2023-02-25T20:29:07.836Z,99807.53
2023-02-25T20:31:35.466Z,99802.91
2023-02-25T20:34:05.788Z,99805.16
2023-02-25T20:39:40.668Z,99803.94
2023-02-25T20:45:15.517Z,99810.59
2023-02-25T20:47:43.342Z,99827.19
2023-02-25T20:50:16.194Z,99827.28
2023-02-25T20:52:43.900Z,99833.25
2023-02-25T20:55:11.984Z,99835.28
2023-02-25T20:57:39.483Z,99831.94
2023-02-25T21:00:09.858Z,99838.59
2023-02-25T21:02:37.294Z,99835.50
2023-02-25T21:05:06.340Z,99836.84
2023-02-25T21:07:35.165Z,99829.91
2023-02-25T21:10:02.600Z,99826.13
2023-02-25T21:12:30.014Z,99838.09
2023-02-25T21:17:45.667Z,99837.88
2023-02-25T21:20:13.433Z,99844.78
2023-02-25T21:22:42.226Z,99840.19
2023-02-25T21:25:10.085Z,99835.53
2023-02-25T21:30:36.657Z,99858.81
2023-02-25T21:33:04.371Z,99861.97
2023-02-25T21:35:31.815Z,99862.81
2023-02-25T21:38:00.590Z,99860.19
2023-02-25T21:40:28.238Z,99862.72
2023-02-25T21:42:56.530Z,99873.94
2023-02-25T21:45:23.938Z,99876.78
2023-02-25T21:47:51.423Z,99880.28
2023-02-25T21:50:19.155Z,99880.59
2023-02-25T21:55:43.672Z,99878.47
2023-02-25T21:58:11.143Z,99892.19
2023-02-25T22:03:43.082Z,99895.16
2023-02-25T22:06:10.912Z,99891.63
2023-02-25T22:08:40.105Z,99890.59
2023-02-25T22:11:13.203Z,99893.09
2023-02-25T22:13:40.886Z,99895.66
2023-02-25T22:16:08.610Z,99897.50
2023-02-25T22:21:38.561Z,99904.47
2023-02-25T22:24:06.464Z,99916.78
2023-02-25T22:26:36.564Z,99910.25
2023-02-25T22:29:06.609Z,99911.00
2023-02-25T22:31:34.828Z,99922.06
2023-02-25T22:34:02.666Z,99916.19
2023-02-25T22:36:30.176Z,99913.59
2023-02-25T22:41:47.904Z,99920.16
2023-02-25T22:44:17.939Z,99920.78
2023-02-25T22:46:45.406Z,99920.00
2023-02-25T22:52:15.622Z,99929.19
2023-02-25T22:54:43.129Z,99927.06
2023-02-25T22:57:11.956Z,99933.47
2023-02-25T22:59:39.454Z,99935.22
2023-02-25T23:05:10.029Z,99947.53
2023-02-25T23:07:37.578Z,99950.38
2023-02-25T23:10:05.782Z,99941.50
2023-02-25T23:12:34.539Z,99940.31
2023-02-25T23:15:01.965Z,99944.19
2023-02-25T23:17:29.397Z,99913.06
2023-02-25T23:20:00.127Z,99943.75
2023-02-25T23:25:26.713Z,99954.97
2023-02-25T23:27:57.022Z,99950.59
2023-02-25T23:33:26.561Z,99960.06
2023-02-25T23:35:54.037Z,99968.31
2023-02-25T23:38:22.799Z,99966.66
2023-02-25T23:40:50.423Z,99963.94
2023-02-25T23:43:19.202Z,99968.09
2023-02-25T23:45:47.297Z,99974.09
2023-02-25T23:48:15.009Z,99972.63
2023-02-25T23:50:42.420Z,99968.34
2023-02-25T23:53:09.859Z,99980.47
2023-02-25T23:58:26.910Z,99990.38
